Погода Дудчинона неделю

Витебская область, Белоруссия

24 - 30 июня
  • 24июня
    Сегодня
    +13°
    +22°
    Небольшая облачность и лёгкий дождик
    ВремяПогодаТемператураВлажностьДавлениеВетер, м/сВероятность осадков
    00:00Облачно с прояснениями+16°C86 %747 мм1.3 м/с34 %
    03:00Пасмурно, небольшой дождь+16°C92 %747 мм1.1 м/с29 %
    06:00Пасмурно, ливень+15°C95 %747 мм0.8 м/с34 %
    09:00Практически безоблачно+17°C82 %748 мм0.9 м/с15 %
    12:00Практически безоблачно+20°C59 %749 мм1.4 м/с27 %
    15:00Небольшая облачность и лёгкий дождик+22°C56 %749 мм1.9 м/с42 %
    18:00Облачно с прояснениями+21°C57 %750 мм1.5 м/с15 %
    21:00Практически безоблачно+19°C64 %751 мм1.1 м/с6 %
  • 25июня
    Вторник
    +13°
    +24°
    Небольшая облачность
    ВремяПогодаТемператураВлажностьДавлениеВетер, м/сВероятность осадков
    00:00Ясно и безоблачно+16°C78 %752 мм1.2 м/с2 %
    03:00Практически безоблачно+14°C88 %752 мм1.0 м/с2 %
    06:00Ясно и безоблачно+14°C89 %753 мм1.0 м/с2 %
    09:00Практически безоблачно+20°C73 %754 мм1.5 м/с2 %
    12:00Практически безоблачно+23°C51 %754 мм2.1 м/с4 %
    15:00Небольшая облачность+23°C49 %754 мм2.3 м/с4 %
    18:00Облачно с прояснениями+24°C47 %753 мм1.7 м/с2 %
    21:00Небольшая облачность+21°C65 %753 мм1.1 м/с2 %
  • 26июня
    Среда
    +15°
    +26°
    Облачно с прояснениями
    ВремяПогодаТемператураВлажностьДавлениеВетер, м/сВероятность осадков
    00:00Практически безоблачно+17°C66 %753 мм1.3 м/с2 %
    03:00Практически безоблачно+15°C77 %753 мм0.9 м/с2 %
    06:00Ясно и безоблачно+14°C81 %753 мм0.9 м/с2 %
    09:00Ясно и безоблачно+20°C66 %754 мм1.7 м/с2 %
    12:00Ясно и безоблачно+24°C53 %754 мм2.0 м/с2 %
    15:00Облачно с прояснениями+25°C47 %753 мм2.6 м/с6 %
    18:00Ясно и безоблачно+26°C47 %752 мм2.4 м/с4 %
    21:00Ясно и безоблачно+22°C62 %752 мм1.1 м/с2 %
  • 27июня
    Четверг
    +16°
    +28°
    Ясно и безоблачно
    ВремяПогодаТемператураВлажностьДавлениеВетер, м/сВероятность осадков
    00:00Ясно и безоблачно+18°C73 %752 мм1.1 м/с2 %
    03:00Ясно и безоблачно+17°C85 %752 мм0.8 м/с2 %
    06:00Ясно и безоблачно+17°C87 %752 мм0.8 м/с2 %
    09:00Ясно и безоблачно+22°C73 %752 мм1.4 м/с2 %
    12:00Ясно и безоблачно+26°C55 %752 мм1.8 м/с2 %
    15:00Ясно и безоблачно+27°C48 %752 мм1.9 м/с3 %
    18:00Ясно и безоблачно+27°C48 %752 мм1.8 м/с2 %
    21:00Ясно и безоблачно+23°C72 %752 мм0.8 м/с2 %
  • 28июня
    Пятница
    +16°
    +28°
    Ясно и безоблачно
    ВремяПогодаТемператураВлажностьДавлениеВетер, м/сВероятность осадков
    00:00Ясно и безоблачно+19°C83 %753 мм0.7 м/с2 %
    03:00Ясно и безоблачно+17°C91 %753 мм0.7 м/с2 %
    06:00Ясно и безоблачно+18°C89 %753 мм0.6 м/с2 %
    09:00Ясно и безоблачно+24°C71 %754 мм0.9 м/с2 %
    12:00Ясно и безоблачно+27°C50 %754 мм1.1 м/с2 %
    15:00Ясно и безоблачно+28°C43 %753 мм1.7 м/с2 %
    18:00Ясно и безоблачно+28°C44 %752 мм1.6 м/с2 %
    21:00Ясно и безоблачно+23°C66 %752 мм0.9 м/с6 %
Мы используем cookies
Соглашаюсь